AIC6AS VOBL-VOMM
Flight info
| Callsign | AIC6AS |
|---|---|
| Flight time | 0h 45m |
| Altitude | 19000 |
| Route | VOBL/09L BIA W116 MMV |
| Aircraft | A20N/M-SDE2E3FGHIRWXY/LB1 |
Departure
| Time | 2026-05-07 13:55 |
|---|---|
| Airport | Kempegowda International Airport Bengaluru (VOBL) |
Arrival
| Time | 2026-05-07 14:40 |
|---|---|
| Airport | Chennai International Airport (VOMM) |
| Time | Latitude | Longitude | Altitude | Speed | Heading |
|---|---|---|---|---|---|
| 2026-05-07 13:31 | 13.20345 | 77.70895 | 2962 ft | 0 kts | 0° |
| 2026-05-07 13:40 | 13.20336 | 77.70895 | 2954 ft | 3 kts | 0° |
| 2026-05-07 13:40 | 13.20317 | 77.70894 | 2951 ft | 3 kts | 0° |
| 2026-05-07 13:40 | 13.20298 | 77.70894 | 2954 ft | 3 kts | 0° |
| 2026-05-07 13:40 | 13.20279 | 77.70896 | 2948 ft | 3 kts | 330° |
| 2026-05-07 13:41 | 13.20269 | 77.70904 | 2946 ft | 0 kts | 303° |
| 2026-05-07 13:44 | 13.20270 | 77.70904 | 2946 ft | 1 kts | 303° |
| 2026-05-07 13:44 | 13.20275 | 77.70895 | 2949 ft | 3 kts | 302° |
| 2026-05-07 13:44 | 13.20285 | 77.70863 | 2960 ft | 6 kts | 277° |
| 2026-05-07 13:44 | 13.20289 | 77.70809 | 2962 ft | 9 kts | 272° |
| 2026-05-07 13:45 | 13.20289 | 77.70734 | 2960 ft | 12 kts | 270° |
| 2026-05-07 13:45 | 13.20289 | 77.70648 | 2967 ft | 11 kts | 269° |
| 2026-05-07 13:45 | 13.20288 | 77.70575 | 2969 ft | 9 kts | 269° |
| 2026-05-07 13:45 | 13.20289 | 77.70519 | 2970 ft | 6 kts | 281° |
| 2026-05-07 13:46 | 13.20289 | 77.70472 | 2971 ft | 8 kts | 266° |
| 2026-05-07 13:46 | 13.20296 | 77.70408 | 2973 ft | 10 kts | 302° |
| 2026-05-07 13:46 | 13.20370 | 77.70393 | 2973 ft | 14 kts | 3° |
| 2026-05-07 13:46 | 13.20480 | 77.70396 | 2973 ft | 17 kts | 360° |
| 2026-05-07 13:47 | 13.20532 | 77.70324 | 2975 ft | 11 kts | 258° |
| 2026-05-07 13:47 | 13.20534 | 77.70274 | 2976 ft | 7 kts | 270° |
| 2026-05-07 13:47 | 13.20533 | 77.70193 | 2978 ft | 15 kts | 264° |
| 2026-05-07 13:47 | 13.20533 | 77.70157 | 2979 ft | 18 kts | 272° |
| 2026-05-07 13:48 | 13.20536 | 77.70088 | 2980 ft | 21 kts | 272° |
| 2026-05-07 13:48 | 13.20541 | 77.69941 | 2983 ft | 27 kts | 272° |
| 2026-05-07 13:48 | 13.20546 | 77.69822 | 2986 ft | 26 kts | 272° |
| 2026-05-07 13:49 | 13.20547 | 77.69782 | 2987 ft | 25 kts | 272° |
| 2026-05-07 13:50 | 13.20539 | 77.69643 | 2990 ft | 23 kts | 267° |
| 2026-05-07 13:50 | 13.20542 | 77.69506 | 2992 ft | 17 kts | 283° |
| 2026-05-07 13:50 | 13.20541 | 77.69415 | 2994 ft | 11 kts | 266° |
| 2026-05-07 13:50 | 13.20542 | 77.69338 | 2996 ft | 11 kts | 272° |
| 2026-05-07 13:51 | 13.20544 | 77.69247 | 2998 ft | 14 kts | 270° |
| 2026-05-07 13:51 | 13.20545 | 77.69138 | 3001 ft | 17 kts | 270° |
| 2026-05-07 13:51 | 13.20544 | 77.69012 | 3003 ft | 19 kts | 268° |
| 2026-05-07 13:51 | 13.20545 | 77.68868 | 3007 ft | 21 kts | 270° |
| 2026-05-07 13:52 | 13.20546 | 77.68727 | 3010 ft | 12 kts | 270° |
| 2026-05-07 13:52 | 13.20553 | 77.68653 | 3012 ft | 9 kts | 289° |
| 2026-05-07 13:52 | 13.20591 | 77.68618 | 3013 ft | 6 kts | 356° |
| 2026-05-07 13:52 | 13.20632 | 77.68621 | 3013 ft | 6 kts | 5° |
| 2026-05-07 13:53 | 13.20669 | 77.68624 | 3013 ft | 5 kts | 5° |
| 2026-05-07 13:53 | 13.20704 | 77.68632 | 3013 ft | 5 kts | 32° |
| 2026-05-07 13:53 | 13.20714 | 77.68660 | 3012 ft | 5 kts | 84° |
| 2026-05-07 13:54 | 13.20716 | 77.68687 | 3011 ft | 6 kts | 85° |
| 2026-05-07 13:54 | 13.20714 | 77.68851 | 3008 ft | 55 kts | 91° |
| 2026-05-07 13:54 | 13.20710 | 77.69540 | 2993 ft | 140 kts | 90° |
| 2026-05-07 13:55 | 13.20699 | 77.70740 | 3324 ft | 179 kts | 92° |
| 2026-05-07 13:55 | 13.20758 | 77.71992 | 4365 ft | 172 kts | 75° |
| 2026-05-07 13:55 | 13.21348 | 77.73091 | 5114 ft | 187 kts | 59° |
| 2026-05-07 13:55 | 13.22049 | 77.74262 | 5686 ft | 199 kts | 60° |
| 2026-05-07 13:56 | 13.22762 | 77.75528 | 6134 ft | 218 kts | 62° |
| 2026-05-07 13:56 | 13.23537 | 77.76980 | 6379 ft | 249 kts | 62° |
| 2026-05-07 13:56 | 13.24382 | 77.78608 | 6771 ft | 268 kts | 62° |
| 2026-05-07 13:56 | 13.25265 | 77.80327 | 7443 ft | 275 kts | 62° |
| 2026-05-07 13:57 | 13.26159 | 77.82074 | 8208 ft | 279 kts | 62° |
| 2026-05-07 13:57 | 13.26906 | 77.83919 | 8977 ft | 284 kts | 80° |
| 2026-05-07 13:57 | 13.27000 | 77.85961 | 9763 ft | 289 kts | 89° |
| 2026-05-07 13:57 | 13.26948 | 77.88040 | 10487 ft | 294 kts | 91° |
| 2026-05-07 13:58 | 13.26882 | 77.90154 | 11218 ft | 299 kts | 90° |
| 2026-05-07 13:58 | 13.26830 | 77.92311 | 11934 ft | 304 kts | 90° |
| 2026-05-07 13:58 | 13.26789 | 77.94499 | 12675 ft | 309 kts | 90° |
| 2026-05-07 13:58 | 13.26757 | 77.96696 | 13439 ft | 314 kts | 90° |
| 2026-05-07 13:59 | 13.26729 | 77.98955 | 14152 ft | 320 kts | 90° |
| 2026-05-07 13:59 | 13.26703 | 78.01255 | 14852 ft | 325 kts | 90° |
| 2026-05-07 13:59 | 13.26678 | 78.03589 | 15563 ft | 329 kts | 90° |
| 2026-05-07 13:59 | 13.26654 | 78.05950 | 16265 ft | 333 kts | 90° |
| 2026-05-07 14:00 | 13.26593 | 78.08340 | 16947 ft | 337 kts | 95° |
| 2026-05-07 14:00 | 13.26155 | 78.10728 | 17488 ft | 347 kts | 105° |
| 2026-05-07 14:00 | 13.25474 | 78.13162 | 17782 ft | 363 kts | 107° |
| 2026-05-07 14:00 | 13.24717 | 78.15682 | 18064 ft | 376 kts | 107° |
| 2026-05-07 14:01 | 13.23947 | 78.18242 | 18439 ft | 384 kts | 107° |
| 2026-05-07 14:01 | 13.23160 | 78.20878 | 18782 ft | 387 kts | 107° |
| 2026-05-07 14:01 | 13.22378 | 78.23508 | 18879 ft | 379 kts | 107° |
| 2026-05-07 14:01 | 13.21621 | 78.26067 | 18897 ft | 371 kts | 107° |
| 2026-05-07 14:02 | 13.20876 | 78.28584 | 18898 ft | 369 kts | 107° |
| 2026-05-07 14:02 | 13.20131 | 78.31105 | 18897 ft | 368 kts | 107° |
| 2026-05-07 14:02 | 13.19388 | 78.33617 | 18894 ft | 368 kts | 107° |
| 2026-05-07 14:02 | 13.18646 | 78.36129 | 18894 ft | 368 kts | 107° |
| 2026-05-07 14:03 | 13.17913 | 78.38610 | 18891 ft | 368 kts | 107° |
| 2026-05-07 14:03 | 13.17159 | 78.41160 | 18890 ft | 368 kts | 107° |
| 2026-05-07 14:03 | 13.16425 | 78.43643 | 18891 ft | 368 kts | 107° |
| 2026-05-07 14:03 | 13.15683 | 78.46150 | 18886 ft | 368 kts | 107° |
| 2026-05-07 14:04 | 13.14937 | 78.48669 | 18882 ft | 368 kts | 108° |
| 2026-05-07 14:04 | 13.14194 | 78.51177 | 18876 ft | 368 kts | 108° |
| 2026-05-07 14:04 | 13.13449 | 78.53694 | 18881 ft | 368 kts | 108° |
| 2026-05-07 14:04 | 13.12706 | 78.56203 | 18877 ft | 368 kts | 108° |
| 2026-05-07 14:05 | 13.11961 | 78.58718 | 18875 ft | 368 kts | 108° |
| 2026-05-07 14:05 | 13.11216 | 78.61226 | 18880 ft | 368 kts | 108° |
| 2026-05-07 14:05 | 13.10482 | 78.63699 | 18874 ft | 368 kts | 108° |
| 2026-05-07 14:05 | 13.09736 | 78.66214 | 18863 ft | 367 kts | 108° |
| 2026-05-07 14:06 | 13.08993 | 78.68717 | 18864 ft | 367 kts | 108° |
| 2026-05-07 14:06 | 13.08248 | 78.71221 | 18860 ft | 367 kts | 108° |
| 2026-05-07 14:06 | 13.07503 | 78.73728 | 18858 ft | 367 kts | 108° |
| 2026-05-07 14:06 | 13.06759 | 78.76232 | 18855 ft | 367 kts | 108° |
| 2026-05-07 14:07 | 13.06017 | 78.78727 | 18852 ft | 367 kts | 108° |
| 2026-05-07 14:07 | 13.05270 | 78.81237 | 18847 ft | 367 kts | 108° |
| 2026-05-07 14:07 | 13.04525 | 78.83742 | 18847 ft | 367 kts | 108° |
| 2026-05-07 14:07 | 13.03781 | 78.86242 | 18845 ft | 367 kts | 108° |
| 2026-05-07 14:08 | 13.03045 | 78.88711 | 18836 ft | 367 kts | 108° |
| 2026-05-07 14:08 | 13.02301 | 78.91212 | 18836 ft | 367 kts | 108° |
| 2026-05-07 14:08 | 13.01554 | 78.93716 | 18832 ft | 367 kts | 108° |
| 2026-05-07 14:08 | 13.00808 | 78.96220 | 18829 ft | 367 kts | 108° |
| 2026-05-07 14:09 | 13.00064 | 78.98713 | 18826 ft | 367 kts | 108° |
| 2026-05-07 14:09 | 12.99316 | 79.01220 | 18822 ft | 367 kts | 108° |
| 2026-05-07 14:09 | 12.98570 | 79.03718 | 18820 ft | 367 kts | 108° |
| 2026-05-07 14:09 | 12.97824 | 79.06218 | 18818 ft | 367 kts | 108° |
| 2026-05-07 14:10 | 12.97098 | 79.08689 | 18812 ft | 367 kts | 105° |
| 2026-05-07 14:10 | 12.96707 | 79.11269 | 18813 ft | 368 kts | 96° |
| 2026-05-07 14:10 | 12.96523 | 79.13891 | 18810 ft | 368 kts | 94° |
| 2026-05-07 14:10 | 12.96375 | 79.16508 | 18791 ft | 368 kts | 94° |
| 2026-05-07 14:11 | 12.96227 | 79.19116 | 18415 ft | 366 kts | 94° |
| 2026-05-07 14:11 | 12.96075 | 79.21707 | 17918 ft | 364 kts | 94° |
| 2026-05-07 14:11 | 12.95920 | 79.24292 | 17403 ft | 361 kts | 94° |
| 2026-05-07 14:11 | 12.95764 | 79.26855 | 16926 ft | 358 kts | 94° |
| 2026-05-07 14:12 | 12.95608 | 79.29395 | 16448 ft | 355 kts | 94° |
| 2026-05-07 14:12 | 12.95454 | 79.31873 | 15973 ft | 352 kts | 94° |
| 2026-05-07 14:12 | 12.95299 | 79.34370 | 15518 ft | 348 kts | 94° |
| 2026-05-07 14:12 | 12.95146 | 79.36824 | 14955 ft | 343 kts | 94° |
| 2026-05-07 14:13 | 12.94995 | 79.39242 | 14370 ft | 338 kts | 94° |
| 2026-05-07 14:13 | 12.94846 | 79.41622 | 13817 ft | 332 kts | 94° |
| 2026-05-07 14:13 | 12.94699 | 79.43965 | 13214 ft | 327 kts | 93° |
| 2026-05-07 14:13 | 12.94553 | 79.46277 | 12585 ft | 323 kts | 93° |
| 2026-05-07 14:14 | 12.94409 | 79.48556 | 11959 ft | 319 kts | 92° |
| 2026-05-07 14:14 | 12.94267 | 79.50813 | 11349 ft | 314 kts | 92° |
| 2026-05-07 14:14 | 12.94129 | 79.53004 | 10751 ft | 311 kts | 92° |
| 2026-05-07 14:14 | 12.93991 | 79.55186 | 10322 ft | 301 kts | 92° |
| 2026-05-07 14:15 | 12.93857 | 79.57295 | 9856 ft | 293 kts | 92° |
| 2026-05-07 14:15 | 12.93726 | 79.59380 | 9304 ft | 292 kts | 92° |
| 2026-05-07 14:15 | 12.93596 | 79.61445 | 8873 ft | 289 kts | 92° |
| 2026-05-07 14:15 | 12.93466 | 79.63497 | 8448 ft | 287 kts | 92° |
| 2026-05-07 14:16 | 12.93338 | 79.65525 | 8008 ft | 285 kts | 91° |
| 2026-05-07 14:16 | 12.93210 | 79.67551 | 7567 ft | 283 kts | 91° |
| 2026-05-07 14:16 | 12.93083 | 79.69529 | 7156 ft | 281 kts | 92° |
| 2026-05-07 14:16 | 12.92957 | 79.71519 | 6757 ft | 279 kts | 92° |
| 2026-05-07 14:17 | 12.92831 | 79.73501 | 6335 ft | 278 kts | 92° |
| 2026-05-07 14:17 | 12.92705 | 79.75470 | 5902 ft | 276 kts | 92° |
| 2026-05-07 14:17 | 12.92580 | 79.77428 | 5483 ft | 274 kts | 92° |
| 2026-05-07 14:17 | 12.92456 | 79.79369 | 5076 ft | 272 kts | 92° |
| 2026-05-07 14:18 | 12.92333 | 79.81289 | 4851 ft | 268 kts | 93° |
| 2026-05-07 14:18 | 12.92212 | 79.83171 | 4667 ft | 261 kts | 93° |
| 2026-05-07 14:18 | 12.92095 | 79.84995 | 4360 ft | 259 kts | 93° |
| 2026-05-07 14:18 | 12.91978 | 79.86817 | 3998 ft | 259 kts | 93° |
| 2026-05-07 14:19 | 12.91859 | 79.88670 | 3633 ft | 258 kts | 93° |
| 2026-05-07 14:19 | 12.91741 | 79.90496 | 3282 ft | 256 kts | 93° |
| 2026-05-07 14:19 | 12.91624 | 79.92318 | 2920 ft | 255 kts | 93° |
| 2026-05-07 14:19 | 12.91507 | 79.94128 | 2566 ft | 254 kts | 93° |
| 2026-05-07 14:20 | 12.91450 | 79.95938 | 2324 ft | 255 kts | 86° |
| 2026-05-07 14:20 | 12.91801 | 79.97689 | 2270 ft | 245 kts | 72° |
| 2026-05-07 14:20 | 12.92394 | 79.99254 | 2272 ft | 226 kts | 69° |
| 2026-05-07 14:20 | 12.92940 | 80.00678 | 2272 ft | 210 kts | 69° |
| 2026-05-07 14:21 | 12.93458 | 80.02029 | 2305 ft | 200 kts | 69° |
| 2026-05-07 14:21 | 12.93973 | 80.03362 | 2295 ft | 199 kts | 69° |
| 2026-05-07 14:21 | 12.94459 | 80.04637 | 2163 ft | 187 kts | 70° |
| 2026-05-07 14:21 | 12.94906 | 80.05850 | 1922 ft | 180 kts | 70° |
| 2026-05-07 14:22 | 12.95346 | 80.07036 | 1682 ft | 175 kts | 70° |
| 2026-05-07 14:22 | 12.95771 | 80.08175 | 1479 ft | 169 kts | 70° |
| 2026-05-07 14:22 | 12.96073 | 80.08985 | 1320 ft | 170 kts | 70° |
| 2026-05-07 14:22 | 12.96503 | 80.10141 | 1086 ft | 164 kts | 69° |
| 2026-05-07 14:23 | 12.96899 | 80.11200 | 883 ft | 153 kts | 71° |
| 2026-05-07 14:23 | 12.97259 | 80.12165 | 724 ft | 139 kts | 71° |
| 2026-05-07 14:23 | 12.97597 | 80.13073 | 490 ft | 134 kts | 71° |
| 2026-05-07 14:23 | 12.97925 | 80.13968 | 429 ft | 139 kts | 70° |
| 2026-05-07 14:24 | 12.98294 | 80.14929 | 251 ft | 147 kts | 71° |
| 2026-05-07 14:24 | 12.98643 | 80.15887 | 62 ft | 135 kts | 66° |
| 2026-05-07 14:24 | 12.98950 | 80.16714 | 59 ft | 120 kts | 72° |
| 2026-05-07 14:24 | 12.99314 | 80.17606 | 492 ft | 153 kts | 69° |
| 2026-05-07 14:25 | 12.99710 | 80.18726 | 1150 ft | 178 kts | 72° |
| 2026-05-07 14:25 | 13.00102 | 80.19978 | 1991 ft | 188 kts | 74° |
| 2026-05-07 14:25 | 13.00467 | 80.21258 | 2920 ft | 189 kts | 75° |
| 2026-05-07 14:25 | 13.00849 | 80.22625 | 3506 ft | 213 kts | 75° |
| 2026-05-07 14:26 | 13.01271 | 80.24190 | 3882 ft | 244 kts | 75° |
| 2026-05-07 14:26 | 13.01753 | 80.25998 | 3998 ft | 282 kts | 75° |
| 2026-05-07 14:26 | 13.02318 | 80.28057 | 3998 ft | 317 kts | 71° |
| 2026-05-07 14:26 | 13.03423 | 80.30083 | 4001 ft | 346 kts | 51° |
| 2026-05-07 14:27 | 13.05343 | 80.31705 | 3995 ft | 371 kts | 30° |
| 2026-05-07 14:27 | 13.07746 | 80.32572 | 3975 ft | 356 kts | 10° |
| 2026-05-07 14:27 | 13.10120 | 80.32500 | 3977 ft | 331 kts | 349° |
| 2026-05-07 14:27 | 13.12219 | 80.31791 | 3976 ft | 307 kts | 340° |
| 2026-05-07 14:28 | 13.14117 | 80.30988 | 3975 ft | 284 kts | 339° |
| 2026-05-07 14:28 | 13.15889 | 80.30215 | 3987 ft | 273 kts | 338° |
| 2026-05-07 14:28 | 13.17442 | 80.29153 | 3984 ft | 275 kts | 314° |
| 2026-05-07 14:28 | 13.18395 | 80.27457 | 3982 ft | 278 kts | 287° |
| 2026-05-07 14:29 | 13.18533 | 80.25480 | 3991 ft | 280 kts | 264° |
| 2026-05-07 14:29 | 13.18167 | 80.23515 | 3974 ft | 281 kts | 253° |
| 2026-05-07 14:29 | 13.17540 | 80.21621 | 3643 ft | 279 kts | 249° |
| 2026-05-07 14:29 | 13.16874 | 80.19787 | 3468 ft | 268 kts | 249° |
| 2026-05-07 14:30 | 13.16229 | 80.18023 | 3232 ft | 261 kts | 249° |
| 2026-05-07 14:30 | 13.15596 | 80.16287 | 2905 ft | 259 kts | 249° |
| 2026-05-07 14:30 | 13.14973 | 80.14564 | 2538 ft | 257 kts | 249° |
| 2026-05-07 14:30 | 13.14358 | 80.12853 | 2323 ft | 255 kts | 249° |
| 2026-05-07 14:31 | 13.13752 | 80.11173 | 2288 ft | 255 kts | 249° |
| 2026-05-07 14:31 | 13.13139 | 80.09463 | 2296 ft | 256 kts | 249° |
| 2026-05-07 14:31 | 13.12525 | 80.07748 | 2294 ft | 256 kts | 249° |
| 2026-05-07 14:31 | 13.11914 | 80.06029 | 2288 ft | 257 kts | 248° |
| 2026-05-07 14:32 | 13.11301 | 80.04311 | 2286 ft | 256 kts | 249° |
| 2026-05-07 14:32 | 13.10694 | 80.02595 | 2286 ft | 256 kts | 249° |
| 2026-05-07 14:32 | 13.10082 | 80.00882 | 2291 ft | 256 kts | 249° |
| 2026-05-07 14:32 | 13.09340 | 79.99222 | 2279 ft | 255 kts | 232° |
| 2026-05-07 14:33 | 13.08045 | 79.98113 | 2272 ft | 239 kts | 200° |
| 2026-05-07 14:33 | 13.06531 | 79.97680 | 2304 ft | 215 kts | 186° |
| 2026-05-07 14:33 | 13.05100 | 79.97466 | 2288 ft | 204 kts | 184° |
| 2026-05-07 14:33 | 13.03696 | 79.97286 | 2292 ft | 202 kts | 184° |
| 2026-05-07 14:34 | 13.02303 | 79.97112 | 2294 ft | 202 kts | 184° |
| 2026-05-07 14:34 | 13.00912 | 79.96933 | 2285 ft | 202 kts | 184° |
| 2026-05-07 14:34 | 12.99512 | 79.96751 | 2290 ft | 203 kts | 184° |
| 2026-05-07 14:34 | 12.98107 | 79.96573 | 2285 ft | 204 kts | 184° |
| 2026-05-07 14:35 | 12.96722 | 79.96460 | 2280 ft | 200 kts | 171° |
| 2026-05-07 14:35 | 12.95463 | 79.96956 | 2291 ft | 194 kts | 145° |
| 2026-05-07 14:35 | 12.94381 | 79.97774 | 2291 ft | 193 kts | 139° |
| 2026-05-07 14:35 | 12.93602 | 79.98849 | 2283 ft | 185 kts | 109° |
| 2026-05-07 14:36 | 12.93292 | 80.00113 | 2285 ft | 182 kts | 96° |
| 2026-05-07 14:36 | 12.93324 | 80.01392 | 2286 ft | 180 kts | 79° |
| 2026-05-07 14:36 | 12.93690 | 80.02622 | 2289 ft | 181 kts | 71° |
| 2026-05-07 14:36 | 12.94149 | 80.03831 | 2287 ft | 186 kts | 70° |
| 2026-05-07 14:37 | 12.94602 | 80.05036 | 2078 ft | 180 kts | 70° |
| 2026-05-07 14:37 | 12.95450 | 80.07315 | 1626 ft | 157 kts | 69° |
| 2026-05-07 14:37 | 12.95827 | 80.08324 | 1412 ft | 146 kts | 70° |
| 2026-05-07 14:38 | 12.96182 | 80.09278 | 1240 ft | 141 kts | 70° |
| 2026-05-07 14:38 | 12.96529 | 80.10211 | 1053 ft | 140 kts | 70° |
| 2026-05-07 14:38 | 12.96880 | 80.11150 | 890 ft | 141 kts | 71° |
| 2026-05-07 14:38 | 12.97229 | 80.12089 | 732 ft | 141 kts | 71° |
| 2026-05-07 14:39 | 12.97580 | 80.13027 | 569 ft | 142 kts | 71° |
| 2026-05-07 14:39 | 12.97906 | 80.13967 | 377 ft | 142 kts | 71° |
| 2026-05-07 14:39 | 12.98276 | 80.14905 | 173 ft | 143 kts | 71° |
| 2026-05-07 14:39 | 12.98624 | 80.15834 | 57 ft | 134 kts | 70° |
| 2026-05-07 14:40 | 12.98900 | 80.16588 | 57 ft | 88 kts | 69° |
| 2026-05-07 14:40 | 12.99057 | 80.17009 | 57 ft | 49 kts | 69° |
| 2026-05-07 14:40 | 12.99171 | 80.17308 | 54 ft | 42 kts | 68° |
| 2026-05-07 14:40 | 12.99270 | 80.17574 | 59 ft | 38 kts | 68° |
| 2026-05-07 14:41 | 12.99229 | 80.17675 | 64 ft | 12 kts | 158° |
| 2026-05-07 14:41 | 12.99144 | 80.17691 | 57 ft | 13 kts | 201° |
| 2026-05-07 14:41 | 12.99103 | 80.17616 | 58 ft | 13 kts | 249° |
| 2026-05-07 14:41 | 12.99070 | 80.17529 | 60 ft | 13 kts | 249° |
| 2026-05-07 14:42 | 12.99037 | 80.17441 | 61 ft | 14 kts | 249° |
| 2026-05-07 14:42 | 12.99001 | 80.17346 | 54 ft | 15 kts | 249° |
| 2026-05-07 14:42 | 12.98958 | 80.17248 | 59 ft | 15 kts | 242° |
| 2026-05-07 14:42 | 12.98913 | 80.17147 | 57 ft | 16 kts | 248° |
| 2026-05-07 14:43 | 12.98872 | 80.17040 | 55 ft | 16 kts | 249° |
| 2026-05-07 14:43 | 12.98830 | 80.16929 | 56 ft | 17 kts | 249° |
| 2026-05-07 14:43 | 12.98787 | 80.16814 | 55 ft | 17 kts | 248° |
| 2026-05-07 14:43 | 12.98738 | 80.16731 | 57 ft | 12 kts | 206° |
| 2026-05-07 14:44 | 12.98678 | 80.16743 | 55 ft | 8 kts | 159° |
| 2026-05-07 14:44 | 12.98631 | 80.16762 | 53 ft | 8 kts | 161° |
| 2026-05-07 14:44 | 12.98585 | 80.16741 | 58 ft | 8 kts | 243° |
| 2026-05-07 14:44 | 12.98561 | 80.16676 | 59 ft | 11 kts | 250° |
| 2026-05-07 14:45 | 12.98530 | 80.16592 | 52 ft | 14 kts | 248° |
| 2026-05-07 14:45 | 12.98495 | 80.16495 | 55 ft | 14 kts | 250° |
| 2026-05-07 14:45 | 12.98454 | 80.16392 | 55 ft | 17 kts | 246° |
| 2026-05-07 14:45 | 12.98411 | 80.16273 | 56 ft | 19 kts | 250° |
| 2026-05-07 14:46 | 12.98366 | 80.16148 | 55 ft | 18 kts | 249° |
| 2026-05-07 14:46 | 12.98327 | 80.16043 | 57 ft | 9 kts | 241° |
| 2026-05-07 14:46 | 12.98308 | 80.16038 | 55 ft | 3 kts | 180° |
| 2026-05-07 14:46 | 12.98272 | 80.16047 | 56 ft | 6 kts | 159° |
| 2026-05-07 14:47 | 12.98251 | 80.16056 | 53 ft | 0 kts | 159° |